Pu Dun — XUUB9 — position and weather

sailwx.info

Track history (hours):
 
Tides and Currents Weather Stations Pressure Air Temp Water Temp Dewpoint Dewpoint Depression Visibility Wind Speed Wind Dir Waves Ship Positions

Pu Dun

Last reported at 2014-Aug-14 12:30 UTC. Time now 2014-Aug-21 14:06 UTC.
Position N 35°01' E 140°12'.

Length 75 m; draft 3.5 m.

Type: Cargo ship. MMSI: 515213000.

Date/timePositionNaut miles runAvg speedWind from/ knotsBaromVisibWave heightAir tempDewpointWater temp
2014-Aug-14 12:30N 35°01' E 140°12'23 9.7
2014-Aug-14 10:07N 34°58' E 139°44'5 9.4
2014-Aug-14 09:33N 35°03' E 139°44'1111.3
2014-Aug-14 08:33N 35°14' E 139°46'1010.5
2014-Aug-14 07:33N 35°24' E 139°43'1111.1
2014-Aug-14 06:33N 35°31' E 139°54'1110.6
2014-Aug-14 05:33N 35°36' E 140°06'1 0.6
2014-Aug-14 04:33N 35°36' E 140°06'0 0.0
2014-Aug-14 03:33N 35°36' E 140°06'0 0.0
2014-Aug-14 02:33N 35°36' E 140°06'0 0.0
2014-Aug-14 01:33N 35°36' E 140°06'0 0.0
2014-Aug-14 00:33N 35°36' E 140°06'0 0.0
2014-Aug-13 23:30N 35°36' E 140°06'0 0.0
2014-Aug-13 22:30N 35°36' E 140°06'0 0.0
2014-Aug-13 21:30N 35°36' E 140°06'0 0.0
2014-Aug-13 20:30N 35°36' E 140°06'0 0.0
2014-Aug-13 19:33N 35°36' E 140°06'0 0.0
2014-Aug-13 18:24N 35°36' E 140°06'0 0.0
2014-Aug-13 17:33N 35°36' E 140°06'0 0.0
2014-Aug-13 16:27N 35°36' E 140°06'0 0.0
2014-Aug-13 15:33N 35°36' E 140°06'0 0.0
2014-Aug-13 14:30N 35°36' E 140°06'0 0.0
2014-Aug-13 13:33N 35°36' E 140°06'0 0.0
2014-Aug-13 12:30N 35°36' E 140°06'0 0.0
2014-Aug-13 11:33N 35°36' E 140°06'0 0.0
2014-Aug-13 10:30N 35°36' E 140°06'0 0.0
2014-Aug-13 09:30N 35°36' E 140°06'0 0.0
2014-Aug-13 08:24N 35°36' E 140°06'0 0.0
2014-Aug-13 07:33N 35°36' E 140°06'0 0.0
2014-Aug-13 06:33N 35°36' E 140°06'0 0.0
2014-Aug-13 05:33N 35°36' E 140°06'0 0.0
2014-Aug-13 04:33N 35°36' E 140°06'0 0.0
2014-Aug-13 03:33N 35°36' E 140°06'0 0.0
2014-Aug-13 02:24N 35°36' E 140°06'0 0.0
2014-Aug-13 01:33N 35°36' E 140°06'0 0.0
2014-Aug-13 00:33N 35°36' E 140°06'0 0.0
2014-Aug-12 23:33N 35°36' E 140°06'0 0.0
2014-Aug-12 22:33N 35°36' E 140°06'0 0.0
2014-Aug-12 21:33N 35°36' E 140°06'0 0.0
2014-Aug-12 20:33N 35°36' E 140°06'0 0.0
2014-Aug-12 19:33N 35°36' E 140°06'0 0.0
2014-Aug-12 18:33N 35°36' E 140°06'0 0.0
2014-Aug-12 17:33N 35°36' E 140°06'0 0.0
2014-Aug-12 16:33N 35°36' E 140°06'0 0.0
2014-Aug-12 15:33N 35°36' E 140°06'0 0.0
2014-Aug-12 14:33N 35°36' E 140°06'0 0.0
2014-Aug-12 13:33N 35°36' E 140°06'0 0.0
2014-Aug-12 12:30N 35°36' E 140°06'0 0.0
2014-Aug-12 11:33N 35°36' E 140°06'0 0.0
2014-Aug-12 10:33N 35°36' E 140°06'0 0.0
2014-Aug-12 09:33N 35°36' E 140°06'0 0.0
2014-Aug-12 08:33N 35°36' E 140°06'0 0.0
2014-Aug-12 07:33N 35°36' E 140°06'0 0.0
2014-Aug-12 06:18N 35°36' E 140°06'0 0.0
2014-Aug-12 05:30N 35°36' E 140°06'0 0.4
2014-Aug-12 04:33N 35°36' E 140°06'9 9.2
2014-Aug-12 03:33N 35°31' E 139°56'1010.1
2014-Aug-12 02:33N 35°25' E 139°47'9 8.8
2014-Aug-12 01:33N 35°16' E 139°46'10 9.5
2014-Aug-12 00:33N 35°06' E 139°44'1010.3
2014-Aug-11 23:33N 34°59' E 139°36'  
Track history (hours):
 
Tides and Currents Weather Stations Pressure Air Temp Water Temp Dewpoint Dewpoint Depression Visibility Wind Speed Wind Dir Waves Ship Positions

Pu Dun

Last reported at 2014-Aug-14 12:30 UTC. Time now 2014-Aug-21 14:06 UTC.
Position N 35°01' E 140°12'.

Length 75 m; draft 3.5 m.

Type: Cargo ship. MMSI: 515213000.

Date/timePositionNaut miles runAvg speedWind from/ knotsBaromVisibWave heightAir tempDewpointWater temp
2014-Aug-14 12:30N 35°01' E 140°12'23 9.7
2014-Aug-14 10:07N 34°58' E 139°44'5 9.4
2014-Aug-14 09:33N 35°03' E 139°44'1111.3
2014-Aug-14 08:33N 35°14' E 139°46'1010.5
2014-Aug-14 07:33N 35°24' E 139°43'1111.1
2014-Aug-14 06:33N 35°31' E 139°54'1110.6
2014-Aug-14 05:33N 35°36' E 140°06'1 0.6
2014-Aug-14 04:33N 35°36' E 140°06'0 0.0
2014-Aug-14 03:33N 35°36' E 140°06'0 0.0
2014-Aug-14 02:33N 35°36' E 140°06'0 0.0
2014-Aug-14 01:33N 35°36' E 140°06'0 0.0
2014-Aug-14 00:33N 35°36' E 140°06'0 0.0
2014-Aug-13 23:30N 35°36' E 140°06'0 0.0
2014-Aug-13 22:30N 35°36' E 140°06'0 0.0
2014-Aug-13 21:30N 35°36' E 140°06'0 0.0
2014-Aug-13 20:30N 35°36' E 140°06'0 0.0
2014-Aug-13 19:33N 35°36' E 140°06'0 0.0
2014-Aug-13 18:24N 35°36' E 140°06'0 0.0
2014-Aug-13 17:33N 35°36' E 140°06'0 0.0
2014-Aug-13 16:27N 35°36' E 140°06'0 0.0
2014-Aug-13 15:33N 35°36' E 140°06'0 0.0
2014-Aug-13 14:30N 35°36' E 140°06'0 0.0
2014-Aug-13 13:33N 35°36' E 140°06'0 0.0
2014-Aug-13 12:30N 35°36' E 140°06'0 0.0
2014-Aug-13 11:33N 35°36' E 140°06'0 0.0
2014-Aug-13 10:30N 35°36' E 140°06'0 0.0
2014-Aug-13 09:30N 35°36' E 140°06'0 0.0
2014-Aug-13 08:24N 35°36' E 140°06'0 0.0
2014-Aug-13 07:33N 35°36' E 140°06'0 0.0
2014-Aug-13 06:33N 35°36' E 140°06'0 0.0
2014-Aug-13 05:33N 35°36' E 140°06'0 0.0
2014-Aug-13 04:33N 35°36' E 140°06'0 0.0
2014-Aug-13 03:33N 35°36' E 140°06'0 0.0
2014-Aug-13 02:24N 35°36' E 140°06'0 0.0
2014-Aug-13 01:33N 35°36' E 140°06'0 0.0
2014-Aug-13 00:33N 35°36' E 140°06'0 0.0
2014-Aug-12 23:33N 35°36' E 140°06'0 0.0
2014-Aug-12 22:33N 35°36' E 140°06'0 0.0
2014-Aug-12 21:33N 35°36' E 140°06'0 0.0
2014-Aug-12 20:33N 35°36' E 140°06'0 0.0
2014-Aug-12 19:33N 35°36' E 140°06'0 0.0
2014-Aug-12 18:33N 35°36' E 140°06'0 0.0
2014-Aug-12 17:33N 35°36' E 140°06'0 0.0
2014-Aug-12 16:33N 35°36' E 140°06'0 0.0
2014-Aug-12 15:33N 35°36' E 140°06'0 0.0
2014-Aug-12 14:33N 35°36' E 140°06'0 0.0
2014-Aug-12 13:33N 35°36' E 140°06'0 0.0
2014-Aug-12 12:30N 35°36' E 140°06'0 0.0
2014-Aug-12 11:33N 35°36' E 140°06'0 0.0
2014-Aug-12 10:33N 35°36' E 140°06'0 0.0
2014-Aug-12 09:33N 35°36' E 140°06'0 0.0
2014-Aug-12 08:33N 35°36' E 140°06'0 0.0
2014-Aug-12 07:33N 35°36' E 140°06'0 0.0
2014-Aug-12 06:18N 35°36' E 140°06'0 0.0
2014-Aug-12 05:30N 35°36' E 140°06'0 0.4
2014-Aug-12 04:33N 35°36' E 140°06'9 9.2
2014-Aug-12 03:33N 35°31' E 139°56'1010.1
2014-Aug-12 02:33N 35°25' E 139°47'9 8.8
2014-Aug-12 01:33N 35°16' E 139°46'10 9.5
2014-Aug-12 00:33N 35°06' E 139°44'1010.3
2014-Aug-11 23:33N 34°59' E 139°36'  

Dump ship's entire track history